sensor_id;sensor_type;location;lat;lon;timestamp;pressure;altitude;pressure_sealevel;temperature;humidity
50672;BME280;46021;55.882;37.654;2022-12-08T00:00:14;100102.56;;;-9.98;70.05
50672;BME280;46021;55.882;37.654;2022-12-08T00:02:42;100101.03;;;-9.96;69.74
50672;BME280;46021;55.882;37.654;2022-12-08T00:05:09;100092.13;;;-10.04;69.48
50672;BME280;46021;55.882;37.654;2022-12-08T00:07:55;100096.84;;;-9.95;68.93
50672;BME280;46021;55.882;37.654;2022-12-08T00:10:42;100089.00;;;-10.00;69.73
50672;BME280;46021;55.882;37.654;2022-12-08T00:13:09;100086.56;;;-9.98;69.92
50672;BME280;46021;55.882;37.654;2022-12-08T00:15:36;100087.28;;;-10.01;69.84
50672;BME280;46021;55.882;37.654;2022-12-08T00:18:04;100093.09;;;-10.02;69.86
50672;BME280;46021;55.882;37.654;2022-12-08T00:20:31;100078.91;;;-10.00;69.32
50672;BME280;46021;55.882;37.654;2022-12-08T00:23:00;100078.75;;;-10.03;69.96
50672;BME280;46021;55.882;37.654;2022-12-08T00:25:29;100076.38;;;-10.00;69.41
50672;BME280;46021;55.882;37.654;2022-12-08T00:27:57;100075.44;;;-10.02;69.47
50672;BME280;46021;55.882;37.654;2022-12-08T00:30:24;100072.91;;;-10.02;69.37
50672;BME280;46021;55.882;37.654;2022-12-08T00:32:51;100071.34;;;-10.00;69.69
50672;BME280;46021;55.882;37.654;2022-12-08T00:35:18;100065.19;;;-10.05;69.45
50672;BME280;46021;55.882;37.654;2022-12-08T00:37:45;100075.44;;;-10.02;69.81
50672;BME280;46021;55.882;37.654;2022-12-08T00:40:15;100065.19;;;-10.05;69.63
50672;BME280;46021;55.882;37.654;2022-12-08T00:42:42;100063.97;;;-10.12;69.67
50672;BME280;46021;55.882;37.654;2022-12-08T00:45:10;100063.00;;;-10.14;69.91
50672;BME280;46021;55.882;37.654;2022-12-08T00:47:37;100056.50;;;-10.10;69.86
50672;BME280;46021;55.882;37.654;2022-12-08T00:50:06;100059.78;;;-10.11;69.65
50672;BME280;46021;55.882;37.654;2022-12-08T00:52:33;100063.44;;;-10.06;69.17
50672;BME280;46021;55.882;37.654;2022-12-08T00:55:01;100051.69;;;-10.06;69.59
50672;BME280;46021;55.882;37.654;2022-12-08T00:57:31;100058.06;;;-10.12;69.79
50672;BME280;46021;55.882;37.654;2022-12-08T00:59:58;100044.31;;;-10.03;69.38
50672;BME280;46021;55.882;37.654;2022-12-08T01:02:25;100050.41;;;-9.99;68.96
50672;BME280;46021;55.882;37.654;2022-12-08T01:04:52;100040.31;;;-9.99;69.55
50672;BME280;46021;55.882;37.654;2022-12-08T01:07:19;100038.56;;;-10.00;69.15
50672;BME280;46021;55.882;37.654;2022-12-08T01:09:47;100041.88;;;-10.01;69.48
50672;BME280;46021;55.882;37.654;2022-12-08T01:12:14;100033.09;;;-9.93;69.17
50672;BME280;46021;55.882;37.654;2022-12-08T01:14:42;100026.22;;;-9.95;69.07
50672;BME280;46021;55.882;37.654;2022-12-08T01:17:09;100042.56;;;-10.04;69.54
50672;BME280;46021;55.882;37.654;2022-12-08T01:19:36;100044.84;;;-9.93;69.28
50672;BME280;46021;55.882;37.654;2022-12-08T01:22:03;100045.25;;;-9.86;68.97
50672;BME280;46021;55.882;37.654;2022-12-08T01:24:31;100044.50;;;-9.85;68.64
50672;BME280;46021;55.882;37.654;2022-12-08T01:26:58;100048.31;;;-9.91;68.98
50672;BME280;46021;55.882;37.654;2022-12-08T01:29:25;100049.88;;;-9.93;69.50
50672;BME280;46021;55.882;37.654;2022-12-08T01:31:54;100043.53;;;-10.02;69.44
50672;BME280;46021;55.882;37.654;2022-12-08T01:34:21;100038.94;;;-9.94;69.26
50672;BME280;46021;55.882;37.654;2022-12-08T01:36:48;100052.13;;;-9.98;69.28
50672;BME280;46021;55.882;37.654;2022-12-08T01:39:17;100042.22;;;-9.95;69.21
50672;BME280;46021;55.882;37.654;2022-12-08T01:41:46;100036.66;;;-9.89;68.91
50672;BME280;46021;55.882;37.654;2022-12-08T01:47:19;100043.78;;;-9.97;69.11
50672;BME280;46021;55.882;37.654;2022-12-08T01:49:46;100044.22;;;-10.04;69.35
50672;BME280;46021;55.882;37.654;2022-12-08T01:52:17;100043.59;;;-10.00;69.66
50672;BME280;46021;55.882;37.654;2022-12-08T01:54:48;100044.56;;;-9.98;69.53
50672;BME280;46021;55.882;37.654;2022-12-08T01:57:20;100043.09;;;-9.94;69.39
50672;BME280;46021;55.882;37.654;2022-12-08T01:59:53;100037.47;;;-10.05;69.77
50672;BME280;46021;55.882;37.654;2022-12-08T02:02:23;100039.59;;;-9.96;69.42
50672;BME280;46021;55.882;37.654;2022-12-08T02:04:52;100040.31;;;-9.99;69.40
50672;BME280;46021;55.882;37.654;2022-12-08T02:07:19;100029.19;;;-10.03;69.46
50672;BME280;46021;55.882;37.654;2022-12-08T02:09:47;100037.00;;;-9.98;69.08
50672;BME280;46021;55.882;37.654;2022-12-08T02:12:14;100028.16;;;-10.06;69.50
50672;BME280;46021;55.882;37.654;2022-12-08T02:15:01;100021.53;;;-10.04;69.76
50672;BME280;46021;55.882;37.654;2022-12-08T02:17:34;100028.34;;;-10.18;70.53
50672;BME280;46021;55.882;37.654;2022-12-08T02:20:22;100030.94;;;-10.16;70.06
50672;BME280;46021;55.882;37.654;2022-12-08T02:22:57;100027.00;;;-10.11;70.03
50672;BME280;46021;55.882;37.654;2022-12-08T02:25:34;100028.34;;;-10.18;70.42
50672;BME280;46021;55.882;37.654;2022-12-08T02:28:24;100020.34;;;-10.11;69.92
50672;BME280;46021;55.882;37.654;2022-12-08T02:31:01;100021.19;;;-10.10;70.06
50672;BME280;46021;55.882;37.654;2022-12-08T02:34:00;100017.41;;;-10.18;69.97
50672;BME280;46021;55.882;37.654;2022-12-08T02:36:32;100013.91;;;-10.21;70.13
50672;BME280;46021;55.882;37.654;2022-12-08T02:39:09;100014.94;;;-10.17;70.37
50672;BME280;46021;55.882;37.654;2022-12-08T02:41:41;100002.53;;;-10.29;70.83
50672;BME280;46021;55.882;37.654;2022-12-08T02:44:16;99997.56;;;-10.27;70.22
50672;BME280;46021;55.882;37.654;2022-12-08T02:46:49;99995.28;;;-10.23;70.67
50672;BME280;46021;55.882;37.654;2022-12-08T02:49:19;99985.22;;;-10.23;70.37
50672;BME280;46021;55.882;37.654;2022-12-08T02:51:46;99972.34;;;-10.12;70.47
50672;BME280;46021;55.882;37.654;2022-12-08T02:54:14;99989.19;;;-10.11;70.23
50672;BME280;46021;55.882;37.654;2022-12-08T02:57:02;99992.84;;;-10.06;70.45
50672;BME280;46021;55.882;37.654;2022-12-08T02:59:50;99990.00;;;-10.12;70.14
50672;BME280;46021;55.882;37.654;2022-12-08T03:05:26;99980.69;;;-10.13;70.06
50672;BME280;46021;55.882;37.654;2022-12-08T03:08:01;99984.53;;;-10.20;70.37
50672;BME280;46021;55.882;37.654;2022-12-08T03:10:35;99971.84;;;-10.22;70.62
50672;BME280;46021;55.882;37.654;2022-12-08T03:13:24;99976.88;;;-10.22;70.43
50672;BME280;46021;55.882;37.654;2022-12-08T03:15:53;99971.06;;;-10.21;70.54
50672;BME280;46021;55.882;37.654;2022-12-08T03:18:24;99977.91;;;-10.18;70.21
50672;BME280;46021;55.882;37.654;2022-12-08T03:20:55;99983.50;;;-10.24;70.61
50672;BME280;46021;55.882;37.654;2022-12-08T03:23:22;99969.50;;;-10.18;70.34
50672;BME280;46021;55.882;37.654;2022-12-08T03:25:55;99976.03;;;-10.22;70.45
50672;BME280;46021;55.882;37.654;2022-12-08T03:28:25;99978.63;;;-10.21;70.83
50672;BME280;46021;55.882;37.654;2022-12-08T03:30:54;99967.66;;;-10.21;70.55
50672;BME280;46021;55.882;37.654;2022-12-08T03:33:25;99960.19;;;-10.20;70.23
50672;BME280;46021;55.882;37.654;2022-12-08T03:35:56;99958.47;;;-10.21;70.72
50672;BME280;46021;55.882;37.654;2022-12-08T03:38:25;99954.38;;;-10.18;70.32
50672;BME280;46021;55.882;37.654;2022-12-08T03:40:52;99964.91;;;-10.26;70.49
50672;BME280;46021;55.882;37.654;2022-12-08T03:43:33;99968.56;;;-10.21;70.44
50672;BME280;46021;55.882;37.654;2022-12-08T03:46:00;99955.69;;;-10.25;70.71
50672;BME280;46021;55.882;37.654;2022-12-08T03:48:27;99953.56;;;-10.17;70.50
50672;BME280;46021;55.882;37.654;2022-12-08T03:50:56;99958.78;;;-10.14;70.42
50672;BME280;46021;55.882;37.654;2022-12-08T03:53:23;99960.38;;;-10.16;70.63
50672;BME280;46021;55.882;37.654;2022-12-08T03:55:51;99964.94;;;-10.09;70.40
50672;BME280;46021;55.882;37.654;2022-12-08T03:58:19;99950.53;;;-10.12;70.32
50672;BME280;46021;55.882;37.654;2022-12-08T04:00:46;99954.69;;;-10.12;70.22
50672;BME280;46021;55.882;37.654;2022-12-08T04:03:13;99947.94;;;-10.28;70.90
50672;BME280;46021;55.882;37.654;2022-12-08T04:05:40;99947.72;;;-10.33;71.60
50672;BME280;46021;55.882;37.654;2022-12-08T04:08:08;99948.13;;;-10.25;71.23
50672;BME280;46021;55.882;37.654;2022-12-08T04:10:35;99956.38;;;-10.28;70.93
50672;BME280;46021;55.882;37.654;2022-12-08T04:13:04;99950.16;;;-10.34;71.44
50672;BME280;46021;55.882;37.654;2022-12-08T04:15:34;99945.34;;;-10.30;71.50
50672;BME280;46021;55.882;37.654;2022-12-08T04:18:03;99930.78;;;-10.35;71.51
50672;BME280;46021;55.882;37.654;2022-12-08T04:20:30;99940.56;;;-10.25;71.38
50672;BME280;46021;55.882;37.654;2022-12-08T04:22:57;99942.44;;;-10.21;70.83
50672;BME280;46021;55.882;37.654;2022-12-08T04:25:25;99920.22;;;-10.28;71.07
50672;BME280;46021;55.882;37.654;2022-12-08T04:27:53;99932.81;;;-10.28;71.69
50672;BME280;46021;55.882;37.654;2022-12-08T04:30:20;99943.34;;;-10.21;71.71
50672;BME280;46021;55.882;37.654;2022-12-08T04:32:48;99942.13;;;-10.27;72.51
50672;BME280;46021;55.882;37.654;2022-12-08T04:35:15;99951.34;;;-10.28;72.24
50672;BME280;46021;55.882;37.654;2022-12-08T04:37:42;99931.66;;;-10.35;72.84
50672;BME280;46021;55.882;37.654;2022-12-08T04:40:11;99944.88;;;-10.23;72.38
50672;BME280;46021;55.882;37.654;2022-12-08T04:42:40;99944.13;;;-10.22;72.45
50672;BME280;46021;55.882;37.654;2022-12-08T04:45:07;99944.13;;;-10.22;72.71
50672;BME280;46021;55.882;37.654;2022-12-08T04:47:34;99951.50;;;-10.25;73.11
50672;BME280;46021;55.882;37.654;2022-12-08T04:50:02;99956.72;;;-10.22;72.48
50672;BME280;46021;55.882;37.654;2022-12-08T04:52:30;99935.50;;;-10.25;72.40
50672;BME280;46021;55.882;37.654;2022-12-08T04:54:57;99944.88;;;-10.23;73.04
50672;BME280;46021;55.882;37.654;2022-12-08T04:57:24;99939.69;;;-10.26;73.32
50672;BME280;46021;55.882;37.654;2022-12-08T04:59:52;99946.44;;;-10.25;73.63
50672;BME280;46021;55.882;37.654;2022-12-08T05:02:19;99948.69;;;-10.31;73.67
50672;BME280;46021;55.882;37.654;2022-12-08T05:04:47;99946.41;;;-10.26;73.40
50672;BME280;46021;55.882;37.654;2022-12-08T05:07:14;99952.91;;;-10.30;73.64
50672;BME280;46021;55.882;37.654;2022-12-08T05:09:41;99943.31;;;-10.37;73.67
50672;BME280;46021;55.882;37.654;2022-12-08T05:12:09;99942.50;;;-10.36;73.87
50672;BME280;46021;55.882;37.654;2022-12-08T05:14:36;99931.66;;;-10.35;73.98
50672;BME280;46021;55.882;37.654;2022-12-08T05:17:05;99931.66;;;-10.35;73.43
50672;BME280;46021;55.882;37.654;2022-12-08T05:19:32;99932.75;;;-10.30;73.85
50672;BME280;46021;55.882;37.654;2022-12-08T05:21:59;99930.56;;;-10.24;73.36
50672;BME280;46021;55.882;37.654;2022-12-08T05:24:26;99930.38;;;-10.27;73.58
50672;BME280;46021;55.882;37.654;2022-12-08T05:26:53;99926.84;;;-10.30;73.46
50672;BME280;46021;55.882;37.654;2022-12-08T05:29:20;99927.00;;;-10.27;73.54
50672;BME280;46021;55.882;37.654;2022-12-08T05:31:47;99930.38;;;-10.27;73.59
50672;BME280;46021;55.882;37.654;2022-12-08T05:34:16;99927.88;;;-10.27;73.62
50672;BME280;46021;55.882;37.654;2022-12-08T05:36:43;99932.28;;;-10.23;73.12
50672;BME280;46021;55.882;37.654;2022-12-08T05:39:11;99935.41;;;-10.27;73.08
50672;BME280;46021;55.882;37.654;2022-12-08T05:41:39;99920.44;;;-10.40;73.59
50672;BME280;46021;55.882;37.654;2022-12-08T05:44:06;99923.16;;;-10.37;73.30
50672;BME280;46021;55.882;37.654;2022-12-08T05:46:34;99930.00;;;-10.34;73.30
50672;BME280;46021;55.882;37.654;2022-12-08T05:49:02;99918.88;;;-10.38;73.15
50672;BME280;46021;55.882;37.654;2022-12-08T05:51:30;99926.63;;;-10.35;73.35
50672;BME280;46021;55.882;37.654;2022-12-08T05:53:57;99931.19;;;-10.28;73.00
50672;BME280;46021;55.882;37.654;2022-12-08T05:56:25;99936.38;;;-10.25;72.71
50672;BME280;46021;55.882;37.654;2022-12-08T05:58:52;99943.06;;;-10.25;72.77
50672;BME280;46021;55.882;37.654;2022-12-08T06:01:20;99932.75;;;-10.30;73.39
50672;BME280;46021;55.882;37.654;2022-12-08T06:03:48;99932.13;;;-10.26;72.65
50672;BME280;46021;55.882;37.654;2022-12-08T06:06:15;99927.66;;;-10.31;72.76
50672;BME280;46021;55.882;37.654;2022-12-08T06:08:44;99924.28;;;-10.32;72.91
50672;BME280;46021;55.882;37.654;2022-12-08T06:11:17;99940.59;;;-10.40;72.98
50672;BME280;46021;55.882;37.654;2022-12-08T06:13:45;99927.22;;;-10.39;73.47
50672;BME280;46021;55.882;37.654;2022-12-08T06:16:12;99926.53;;;-10.36;72.88
50672;BME280;46021;55.882;37.654;2022-12-08T06:18:39;99927.72;;;-10.30;72.85
50672;BME280;46021;55.882;37.654;2022-12-08T06:21:08;99924.38;;;-10.29;73.05
50672;BME280;46021;55.882;37.654;2022-12-08T06:23:36;99927.56;;;-10.33;72.89
50672;BME280;46021;55.882;37.654;2022-12-08T06:26:05;99915.06;;;-10.31;73.30
50672;BME280;46021;55.882;37.654;2022-12-08T06:28:33;99910.31;;;-10.25;72.55
50672;BME280;46021;55.882;37.654;2022-12-08T06:31:05;99921.97;;;-10.27;73.02
50672;BME280;46021;55.882;37.654;2022-12-08T06:33:32;99917.78;;;-10.27;73.21
50672;BME280;46021;55.882;37.654;2022-12-08T06:35:59;99926.00;;;-10.31;73.88
50672;BME280;46021;55.882;37.654;2022-12-08T06:38:27;99909.16;;;-10.32;74.18
50672;BME280;46021;55.882;37.654;2022-12-08T06:40:54;99924.91;;;-10.20;74.16
50672;BME280;46021;55.882;37.654;2022-12-08T06:43:24;99920.56;;;-10.22;74.81
50672;BME280;46021;55.882;37.654;2022-12-08T06:45:51;99926.16;;;-10.11;74.13
50672;BME280;46021;55.882;37.654;2022-12-08T06:48:19;99916.03;;;-10.13;74.27
50672;BME280;46021;55.882;37.654;2022-12-08T06:50:46;99915.09;;;-10.15;73.85
50672;BME280;46021;55.882;37.654;2022-12-08T06:53:13;99900.56;;;-10.19;73.90
50672;BME280;46021;55.882;37.654;2022-12-08T06:55:42;99922.47;;;-10.18;73.88
50672;BME280;46021;55.882;37.654;2022-12-08T06:58:10;99919.69;;;-10.23;73.92
50672;BME280;46021;55.882;37.654;2022-12-08T07:00:40;99912.91;;;-10.24;73.54
50672;BME280;46021;55.882;37.654;2022-12-08T07:03:08;99919.69;;;-10.23;73.90
50672;BME280;46021;55.882;37.654;2022-12-08T07:05:35;99919.22;;;-10.32;73.04
50672;BME280;46021;55.882;37.654;2022-12-08T07:08:02;99914.50;;;-10.26;73.48
50672;BME280;46021;55.882;37.654;2022-12-08T07:10:29;99922.69;;;-10.13;73.23
50672;BME280;46021;55.882;37.654;2022-12-08T07:12:57;99929.41;;;-10.14;73.12
50672;BME280;46021;55.882;37.654;2022-12-08T07:15:24;99916.72;;;-10.15;73.06
50672;BME280;46021;55.882;37.654;2022-12-08T07:17:52;99926.16;;;-10.11;72.79
50672;BME280;46021;55.882;37.654;2022-12-08T07:20:20;99915.31;;;-10.10;72.45
50672;BME280;46021;55.882;37.654;2022-12-08T07:22:47;99909.94;;;-10.16;72.23
50672;BME280;46021;55.882;37.654;2022-12-08T07:25:15;99894.97;;;-10.13;72.33
50672;BME280;46021;55.882;37.654;2022-12-08T07:27:43;99903.47;;;-10.11;72.11
50672;BME280;46021;55.882;37.654;2022-12-08T07:30:11;99913.38;;;-10.00;71.86
50672;BME280;46021;55.882;37.654;2022-12-08T07:32:39;99910.44;;;-10.07;72.06
50672;BME280;46021;55.882;37.654;2022-12-08T07:35:08;99911.53;;;-10.18;72.12
50672;BME280;46021;55.882;37.654;2022-12-08T07:37:36;99901.91;;;-10.09;72.22
50672;BME280;46021;55.882;37.654;2022-12-08T07:40:05;99919.50;;;-10.11;72.47
50672;BME280;46021;55.882;37.654;2022-12-08T07:42:32;99916.31;;;-9.92;71.83
50672;BME280;46021;55.882;37.654;2022-12-08T07:44:59;99924.97;;;-9.87;71.67
50672;BME280;46021;55.882;37.654;2022-12-08T07:47:30;99905.50;;;-9.89;71.79
50672;BME280;46021;55.882;37.654;2022-12-08T07:49:57;99913.56;;;-9.80;71.82
50672;BME280;46021;55.882;37.654;2022-12-08T07:52:25;99903.94;;;-9.87;71.41
50672;BME280;46021;55.882;37.654;2022-12-08T07:54:52;99905.22;;;-9.79;71.10
50672;BME280;46021;55.882;37.654;2022-12-08T07:57:19;99898.59;;;-9.77;71.14
50672;BME280;46021;55.882;37.654;2022-12-08T07:59:46;99890.09;;;-9.79;71.18
50672;BME280;46021;55.882;37.654;2022-12-08T08:02:17;99873.31;;;-9.78;71.31
50672;BME280;46021;55.882;37.654;2022-12-08T08:04:48;99895.38;;;-9.74;71.13
50672;BME280;46021;55.882;37.654;2022-12-08T08:07:15;99878.03;;;-9.85;71.08
50672;BME280;46021;55.882;37.654;2022-12-08T08:09:44;99873.38;;;-9.77;71.33
50672;BME280;46021;55.882;37.654;2022-12-08T08:12:11;99869.34;;;-9.73;71.30
50672;BME280;46021;55.882;37.654;2022-12-08T08:14:38;99868.72;;;-9.69;71.20
50672;BME280;46021;55.882;37.654;2022-12-08T08:17:05;99867.28;;;-9.64;71.00
50672;BME280;46021;55.882;37.654;2022-12-08T08:19:32;99872.50;;;-9.61;71.02
50672;BME280;46021;55.882;37.654;2022-12-08T08:22:00;99870.38;;;-9.53;70.87
50672;BME280;46021;55.882;37.654;2022-12-08T08:24:27;99865.16;;;-9.56;70.68
50672;BME280;46021;55.882;37.654;2022-12-08T08:26:55;99870.63;;;-9.49;70.62
50672;BME280;46021;55.882;37.654;2022-12-08T08:29:22;99876.44;;;-9.50;70.74
50672;BME280;46021;55.882;37.654;2022-12-08T08:31:49;99866.81;;;-9.41;70.70
50672;BME280;46021;55.882;37.654;2022-12-08T08:34:17;99870.50;;;-9.34;70.77
50672;BME280;46021;55.882;37.654;2022-12-08T08:36:44;99862.34;;;-9.30;70.97
50672;BME280;46021;55.882;37.654;2022-12-08T08:39:12;99852.63;;;-9.22;70.49
50672;BME280;46021;55.882;37.654;2022-12-08T08:41:39;99877.59;;;-9.10;70.48
50672;BME280;46021;55.882;37.654;2022-12-08T08:44:07;99875.22;;;-9.07;70.18
50672;BME280;46021;55.882;37.654;2022-12-08T08:46:34;99873.84;;;-9.00;69.91
50672;BME280;46021;55.882;37.654;2022-12-08T08:49:01;99875.44;;;-9.03;69.67
50672;BME280;46021;55.882;37.654;2022-12-08T08:51:28;99861.59;;;-9.11;70.20
50672;BME280;46021;55.882;37.654;2022-12-08T08:53:55;99875.06;;;-9.10;70.55
50672;BME280;46021;55.882;37.654;2022-12-08T08:56:23;99870.50;;;-9.17;70.54
50672;BME280;46021;55.882;37.654;2022-12-08T08:58:51;99868.22;;;-9.13;70.22
50672;BME280;46021;55.882;37.654;2022-12-08T09:01:21;99847.63;;;-9.21;70.07
50672;BME280;46021;55.882;37.654;2022-12-08T09:03:49;99852.81;;;-9.17;70.93
50672;BME280;46021;55.882;37.654;2022-12-08T09:06:16;99857.97;;;-9.16;71.06
50672;BME280;46021;55.882;37.654;2022-12-08T09:08:44;99866.47;;;-9.14;71.12
50672;BME280;46021;55.882;37.654;2022-12-08T09:11:12;99871.13;;;-9.05;70.77
50672;BME280;46021;55.882;37.654;2022-12-08T09:13:40;99873.13;;;-8.98;70.52
50672;BME280;46021;55.882;37.654;2022-12-08T09:16:07;99868.53;;;-9.07;70.95
50672;BME280;46021;55.882;37.654;2022-12-08T09:18:36;99866.00;;;-9.07;70.62
50672;BME280;46021;55.882;37.654;2022-12-08T09:21:04;99869.38;;;-9.06;70.86
50672;BME280;46021;55.882;37.654;2022-12-08T09:23:31;99867.50;;;-9.10;70.42
50672;BME280;46021;55.882;37.654;2022-12-08T09:25:59;99857.09;;;-9.16;nan
50672;BME280;46021;55.882;37.654;2022-12-08T09:28:26;99860.56;;;-9.14;70.87
50672;BME280;46021;55.882;37.654;2022-12-08T09:30:53;99857.41;;;-9.10;70.89
50672;BME280;46021;55.882;37.654;2022-12-08T09:33:20;99859.84;;;-9.12;71.00
50672;BME280;46021;55.882;37.654;2022-12-08T09:35:48;99853.47;;;-9.22;71.24
50672;BME280;46021;55.882;37.654;2022-12-08T09:38:15;99849.44;;;-9.18;71.47
50672;BME280;46021;55.882;37.654;2022-12-08T09:40:48;99835.31;;;-9.14;71.18
50672;BME280;46021;55.882;37.654;2022-12-08T09:43:25;99831.56;;;-9.05;70.83
50672;BME280;46021;55.882;37.654;2022-12-08T09:46:04;99845.44;;;-8.96;70.98
50672;BME280;46021;55.882;37.654;2022-12-08T09:48:35;99853.94;;;-8.94;70.68
50672;BME280;46021;55.882;37.654;2022-12-08T09:51:07;99844.00;;;-8.91;70.77
50672;BME280;46021;55.882;37.654;2022-12-08T09:53:36;99829.81;;;-9.06;71.06
50672;BME280;46021;55.882;37.654;2022-12-08T09:56:12;99841.97;;;-8.98;70.78
50672;BME280;46021;55.882;37.654;2022-12-08T09:58:46;99844.69;;;-9.12;71.20
50672;BME280;46021;55.882;37.654;2022-12-08T10:01:17;99832.53;;;-9.19;71.56
50672;BME280;46021;55.882;37.654;2022-12-08T10:03:46;99840.81;;;-9.05;71.00
50672;BME280;46021;55.882;37.654;2022-12-08T10:06:21;99833.00;;;-9.10;70.98
50672;BME280;46021;55.882;37.654;2022-12-08T10:08:57;99831.28;;;-9.11;71.37
50672;BME280;46021;55.882;37.654;2022-12-08T10:11:33;99831.56;;;-9.05;71.74
50672;BME280;46021;55.882;37.654;2022-12-08T10:14:12;99821.69;;;-9.00;71.36
50672;BME280;46021;55.882;37.654;2022-12-08T10:16:42;99838.78;;;-8.94;70.97
50672;BME280;46021;55.882;37.654;2022-12-08T10:19:13;99825.50;;;-8.90;71.10
50672;BME280;46021;55.882;37.654;2022-12-08T10:21:43;99841.69;;;-8.87;71.13
50672;BME280;46021;55.882;37.654;2022-12-08T10:24:17;99840.09;;;-8.85;70.77
50672;BME280;46021;55.882;37.654;2022-12-08T10:26:48;99846.16;;;-8.81;71.29
50672;BME280;46021;55.882;37.654;2022-12-08T10:29:15;99842.88;;;-8.80;70.93
50672;BME280;46021;55.882;37.654;2022-12-08T10:31:43;99851.94;;;-8.84;71.56
50672;BME280;46021;55.882;37.654;2022-12-08T10:34:16;99848.56;;;-8.84;70.71
50672;BME280;46021;55.882;37.654;2022-12-08T10:36:47;99845.69;;;-8.92;71.04
50672;BME280;46021;55.882;37.654;2022-12-08T10:39:29;99839.41;;;-8.82;71.78
50672;BME280;46021;55.882;37.654;2022-12-08T10:42:00;99844.56;;;-8.79;71.58
50672;BME280;46021;55.882;37.654;2022-12-08T10:44:28;99834.84;;;-8.89;71.86
50672;BME280;46021;55.882;37.654;2022-12-08T10:46:55;99833.50;;;-8.83;71.99
50672;BME280;46021;55.882;37.654;2022-12-08T10:49:28;99835.22;;;-8.82;71.83
50672;BME280;46021;55.882;37.654;2022-12-08T10:51:58;99837.97;;;-8.77;71.47
50672;BME280;46021;55.882;37.654;2022-12-08T10:54:27;99828.13;;;-8.89;72.05
50672;BME280;46021;55.882;37.654;2022-12-08T10:56:56;99832.81;;;-8.96;72.67
50672;BME280;46021;55.882;37.654;2022-12-08T10:59:23;99838.00;;;-8.93;72.45
50672;BME280;46021;55.882;37.654;2022-12-08T11:01:53;99839.03;;;-8.90;72.68
50672;BME280;46021;55.882;37.654;2022-12-08T11:04:23;99838.94;;;-8.91;72.96
50672;BME280;46021;55.882;37.654;2022-12-08T11:06:55;99829.88;;;-8.88;72.34
50672;BME280;46021;55.882;37.654;2022-12-08T11:09:33;99836.06;;;-8.81;72.14
50672;BME280;46021;55.882;37.654;2022-12-08T11:12:06;99833.19;;;-8.71;72.41
50672;BME280;46021;55.882;37.654;2022-12-08T11:14:44;99822.94;;;-8.74;72.40
50672;BME280;46021;55.882;37.654;2022-12-08T11:17:15;99814.25;;;-8.79;71.96
50672;BME280;46021;55.882;37.654;2022-12-08T11:19:45;99824.81;;;-8.70;72.32
50672;BME280;46021;55.882;37.654;2022-12-08T11:22:23;99814.84;;;-8.67;71.78
50672;BME280;46021;55.882;37.654;2022-12-08T11:25:10;99823.53;;;-8.61;71.94
50672;BME280;46021;55.882;37.654;2022-12-08T11:27:40;99817.22;;;-8.70;71.62
50672;BME280;46021;55.882;37.654;2022-12-08T11:30:14;99824.19;;;-8.66;71.34
50672;BME280;46021;55.882;37.654;2022-12-08T11:32:42;99828.16;;;-8.71;71.60
50672;BME280;46021;55.882;37.654;2022-12-08T11:35:19;99812.97;;;-8.71;71.96
50672;BME280;46021;55.882;37.654;2022-12-08T11:37:47;99817.47;;;-8.65;72.12
50672;BME280;46021;55.882;37.654;2022-12-08T11:40:19;99807.28;;;-8.67;72.24
50672;BME280;46021;55.882;37.654;2022-12-08T11:42:53;99810.66;;;-8.66;72.27
50672;BME280;46021;55.882;37.654;2022-12-08T11:45:27;99815.63;;;-8.68;72.41
50672;BME280;46021;55.882;37.654;2022-12-08T11:48:03;99818.97;;;-8.69;72.43
50672;BME280;46021;55.882;37.654;2022-12-08T11:50:39;99818.25;;;-8.66;72.41
50672;BME280;46021;55.882;37.654;2022-12-08T11:53:14;99820.91;;;-8.63;72.25
50672;BME280;46021;55.882;37.654;2022-12-08T11:55:49;99819.13;;;-8.66;72.65
50672;BME280;46021;55.882;37.654;2022-12-08T11:58:21;99822.50;;;-8.65;72.48
50672;BME280;46021;55.882;37.654;2022-12-08T12:00:49;99835.06;;;-8.67;72.76
50672;BME280;46021;55.882;37.654;2022-12-08T12:03:22;99820.66;;;-8.69;73.36
50672;BME280;46021;55.882;37.654;2022-12-08T12:06:04;99827.56;;;-8.65;72.85
50672;BME280;46021;55.882;37.654;2022-12-08T12:08:45;99833.31;;;-8.68;72.68
50672;BME280;46021;55.882;37.654;2022-12-08T12:11:24;99826.31;;;-8.73;73.08
50672;BME280;46021;55.882;37.654;2022-12-08T12:14:24;99840.97;;;-8.66;73.30
50672;BME280;46021;55.882;37.654;2022-12-08T12:17:01;99839.25;;;-8.67;72.94
50672;BME280;46021;55.882;37.654;2022-12-08T12:19:33;99836.50;;;-8.72;73.55
50672;BME280;46021;55.882;37.654;2022-12-08T12:22:10;99826.63;;;-8.67;73.42
50672;BME280;46021;55.882;37.654;2022-12-08T12:24:39;99828.28;;;-8.68;73.87
50672;BME280;46021;55.882;37.654;2022-12-08T12:27:22;99828.44;;;-8.65;73.64
50672;BME280;46021;55.882;37.654;2022-12-08T12:29:54;99826.84;;;-8.63;73.04
50672;BME280;46021;55.882;37.654;2022-12-08T12:32:24;99834.06;;;-8.52;72.81
50672;BME280;46021;55.882;37.654;2022-12-08T12:34:53;99834.06;;;-8.52;72.65
50672;BME280;46021;55.882;37.654;2022-12-08T12:37:23;99826.75;;;-8.46;73.47
50672;BME280;46021;55.882;37.654;2022-12-08T12:39:57;99829.69;;;-8.37;72.47
50672;BME280;46021;55.882;37.654;2022-12-08T12:42:38;99833.16;;;-8.35;72.89
50672;BME280;46021;55.882;37.654;2022-12-08T12:45:30;99836.34;;;-8.39;72.56
50672;BME280;46021;55.882;37.654;2022-12-08T12:48:20;99835.44;;;-8.39;72.74
50672;BME280;46021;55.882;37.654;2022-12-08T12:50:48;99840.47;;;-8.41;72.57
50672;BME280;46021;55.882;37.654;2022-12-08T12:53:47;99851.44;;;-8.40;72.85
50672;BME280;46021;55.882;37.654;2022-12-08T12:56:47;99845.72;;;-8.36;72.34
50672;BME280;46021;55.882;37.654;2022-12-08T12:59:35;99855.97;;;-8.33;73.00
50672;BME280;46021;55.882;37.654;2022-12-08T13:02:15;99858.44;;;-8.35;72.33
50672;BME280;46021;55.882;37.654;2022-12-08T13:04:56;99861.34;;;-8.45;72.84